Time;durP1;ratioP1;P1;durP2;ratioP2;P2;SDS_P1;SDS_P2;PMS_P1;PMS_P2;Temp;Humidity;BMP_temperature;BMP_pressure;BME280_temperature;BME280_humidity;BME280_pressure;Samples;Min_cycle;Max_cycle;Signal;HPM_P1;HPM_P2
2023/04/23 00:00:29;;;;;;;0.80;0.80;;;;;;;9.88;67.77;99315.25;5094526;28;20127;-69
2023/04/23 00:03:04;;;;;;;3.58;0.65;;;;;;;9.90;68.12;99313.53;5094841;28;20062;-70
2023/04/23 00:05:35;;;;;;;0.98;0.95;;;;;;;9.86;68.43;99311.84;5094775;28;20048;-70
2023/04/23 00:08:05;;;;;;;3.53;1.73;;;;;;;9.83;67.64;99314.41;5094761;28;20040;-70
2023/04/23 00:10:35;;;;;;;;;;;;;;;9.79;68.18;99305.91;5094182;28;20048;-70
2023/04/23 00:13:04;;;;;;;1.60;1.38;;;;;;;9.55;67.93;99316.19;5094442;28;19927;-70
2023/04/23 00:15:34;;;;;;;0.60;0.60;;;;;;;9.26;68.68;99317.97;5094252;28;20494;-69
2023/04/23 00:18:03;;;;;;;3.47;2.25;;;;;;;9.24;68.96;99320.50;5094425;28;20048;-69
2023/04/23 00:20:33;;;;;;;0.80;0.70;;;;;;;9.16;69.36;99316.28;5094151;28;20040;-70
2023/04/23 00:23:02;;;;;;;1.25;1.15;;;;;;;9.25;69.17;99311.16;5094513;28;20101;-69
2023/04/23 00:25:31;;;;;;;0.63;0.63;;;;;;;9.30;69.95;99315.41;5094028;28;20048;-69
2023/04/23 00:28:01;;;;;;;1.20;1.10;;;;;;;9.22;69.63;99309.47;5094012;28;20046;-70
2023/04/23 00:30:30;;;;;;;0.50;0.50;;;;;;;9.23;70.04;99302.69;5094368;28;20072;-68
2023/04/23 00:32:59;;;;;;;1.13;1.03;;;;;;;9.14;70.03;99313.72;5094028;28;20048;-69
2023/04/23 00:35:28;;;;;;;1.20;1.10;;;;;;;9.08;70.35;99303.53;5094033;28;20269;-70
2023/04/23 00:37:57;;;;;;;0.60;0.50;;;;;;;9.15;70.50;99309.47;5075868;28;20048;-68
2023/04/23 00:40:26;;;;;;;0.50;0.50;;;;;;;9.21;70.71;99295.03;5075947;28;20093;-68
2023/04/23 00:42:57;;;;;;;0.85;0.82;;;;;;;9.26;70.46;99302.69;5076124;28;20044;-70
2023/04/23 00:45:28;;;;;;;1.02;0.73;;;;;;;9.21;69.45;99305.22;5076151;28;20157;-70
2023/04/23 00:47:58;;;;;;;0.95;0.90;;;;;;;9.05;70.37;99262.81;5093774;28;20051;-69
2023/04/23 00:50:27;;;;;;;5.85;2.45;;;;;;;9.27;69.97;99294.19;5093765;28;20052;-69
2023/04/23 00:52:56;;;;;;;0.50;0.50;;;;;;;9.27;70.75;99289.94;5076050;28;20223;-68
2023/04/23 00:55:25;;;;;;;1.60;1.50;;;;;;;9.34;70.19;99295.88;5094054;28;20040;-69
2023/04/23 00:57:54;;;;;;;2.55;1.38;;;;;;;9.38;70.13;99290.75;5093567;28;20074;-69
2023/04/23 01:00:23;;;;;;;4.82;1.60;;;;;;;9.43;69.95;99296.69;5093653;28;20043;-70
2023/04/23 01:02:54;;;;;;;2.72;2.50;;;;;;;9.44;69.94;99303.50;5093679;28;20055;-70
2023/04/23 01:05:24;;;;;;;1.13;0.90;;;;;;;9.41;69.93;99297.53;5093589;28;20486;-70
2023/04/23 01:07:53;;;;;;;1.92;1.75;;;;;;;9.31;69.34;99306.91;5075669;28;20070;-70
2023/04/23 01:10:22;;;;;;;;;;;;;;;9.19;69.86;99296.72;5093836;28;20040;-69
2023/04/23 01:12:51;;;;;;;0.80;0.80;;;;;;;9.08;69.65;99302.69;5075521;28;19920;-69
2023/04/23 01:15:20;;;;;;;1.52;1.10;;;;;;;9.02;70.15;99298.44;5093466;28;20036;-68
2023/04/23 01:17:48;;;;;;;5.18;2.65;;;;;;;9.03;69.55;99300.16;5075865;28;20036;-71
2023/04/23 01:20:19;;;;;;;1.20;1.10;;;;;;;8.89;70.59;99301.00;5075665;28;20044;-69
2023/04/23 01:22:49;;;;;;;1.30;1.20;;;;;;;8.91;71.38;99289.97;5096586;28;20055;-69
2023/04/23 01:25:18;;;;;;;1.33;1.23;;;;;;;8.91;71.34;99295.06;5097882;28;20059;-68
2023/04/23 01:27:48;;;;;;;1.92;1.80;;;;;;;8.92;70.59;99291.69;5079520;28;20040;-70
2023/04/23 01:30:19;;;;;;;1.45;1.10;;;;;;;8.89;70.31;99296.78;5079419;28;20044;-70
2023/04/23 01:32:49;;;;;;;0.98;0.98;;;;;;;8.93;70.86;99288.28;5097718;28;20072;-71
2023/04/23 01:35:18;;;;;;;2.20;2.00;;;;;;;8.81;70.50;99293.38;5097607;28;20455;-70
2023/04/23 01:37:48;;;;;;;1.47;1.37;;;;;;;8.73;71.17;99292.53;5079282;28;20040;-70
2023/04/23 01:40:21;;;;;;;0.60;0.60;;;;;;;8.64;71.01;99289.97;5097165;28;20052;-70
2023/04/23 01:42:50;;;;;;;0.70;0.70;;;;;;;8.66;71.41;99293.38;5079201;28;20086;-70
2023/04/23 01:45:20;;;;;;;2.63;1.85;;;;;;;8.75;70.61;99298.47;5097560;28;20458;-69
2023/04/23 01:47:50;;;;;;;0.80;0.73;;;;;;;8.80;71.13;99296.78;5097082;28;20501;-71
2023/04/23 01:50:20;;;;;;;1.55;1.45;;;;;;;8.84;70.67;99297.63;5096719;28;20044;-70
2023/04/23 01:52:50;;;;;;;1.90;1.40;;;;;;;8.80;70.94;99291.69;5097601;28;20043;-70
2023/04/23 01:55:22;;;;;;;2.75;1.83;;;;;;;8.81;70.95;99293.38;5097519;28;20062;-69
2023/04/23 01:57:51;;;;;;;1.45;1.30;;;;;;;8.72;71.50;99293.38;5097467;28;20078;-70
2023/04/23 02:00:20;;;;;;;3.13;1.27;;;;;;;8.49;71.20;99262.00;5096753;28;20048;-70
2023/04/23 02:02:51;;;;;;;1.65;1.55;;;;;;;8.69;70.77;99293.38;5078897;28;20105;-70
2023/04/23 02:05:21;;;;;;;3.33;1.42;;;;;;;8.66;71.02;99289.13;5096817;28;20050;-69
2023/04/23 02:07:52;;;;;;;2.83;1.55;;;;;;;8.73;71.07;99295.09;5078705;28;20048;-69
2023/04/23 02:10:22;;;;;;;1.27;1.20;;;;;;;8.72;70.85;99288.28;5078835;28;20537;-70
2023/04/23 02:12:51;;;;;;;3.47;2.17;;;;;;;8.67;71.33;99289.97;5078596;28;20047;-69
2023/04/23 02:15:20;;;;;;;1.80;1.17;;;;;;;8.54;70.54;99288.28;5096968;28;20058;-69
2023/04/23 02:17:50;;;;;;;1.60;1.25;;;;;;;8.52;70.92;99280.63;5078837;28;20044;-70
2023/04/23 02:20:19;;;;;;;1.70;1.35;;;;;;;8.49;71.36;99289.97;5096414;28;20055;-69
2023/04/23 02:22:49;;;;;;;1.17;1.07;;;;;;;8.49;71.71;99284.88;5078489;28;20559;-69
2023/04/23 02:25:20;;;;;;;1.25;1.15;;;;;;;8.40;71.19;99285.72;5096483;28;20048;-69
2023/04/23 02:27:51;;;;;;;0.60;0.60;;;;;;;8.40;71.94;99283.16;5096320;28;20119;-70
2023/04/23 02:30:20;;;;;;;1.95;1.33;;;;;;;8.41;72.07;99286.56;5096255;28;20402;-69
2023/04/23 02:32:49;;;;;;;1.08;1.02;;;;;;;8.41;71.53;99287.41;5095891;28;20428;-70
2023/04/23 02:35:18;;;;;;;1.13;1.07;;;;;;;8.37;71.45;99272.16;5096182;28;20051;-69
2023/04/23 02:37:46;;;;;;;0.87;0.87;;;;;;;8.35;71.92;99276.41;5096484;28;20032;-70
2023/04/23 02:40:15;;;;;;;1.83;1.58;;;;;;;8.35;72.09;99277.22;5096115;28;20363;-70
2023/04/23 02:42:44;;;;;;;0.77;0.77;;;;;;;8.31;71.32;99282.31;5096050;28;20046;-69
2023/04/23 02:45:15;;;;;;;0.82;0.82;;;;;;;8.22;71.86;99274.63;5095996;28;20036;-69
2023/04/23 02:47:44;;;;;;;0.45;0.45;;;;;;;8.20;72.02;99276.31;5095996;28;20383;-69
2023/04/23 02:50:12;;;;;;;0.97;0.97;;;;;;;8.10;71.34;99281.41;5095734;28;20123;-69
2023/04/23 02:52:42;;;;;;;0.75;0.75;;;;;;;8.15;72.45;99278.00;5077847;28;20058;-70
2023/04/23 02:55:11;;;;;;;1.48;1.38;;;;;;;8.01;71.68;99281.34;5078127;28;20040;-70
2023/04/23 02:57:40;;;;;;;2.67;1.65;;;;;;;7.95;72.35;99278.81;5095766;28;20040;-69
2023/04/23 03:00:13;;;;;;;0.47;0.47;;;;;;;8.04;72.47;99280.50;5077761;28;20105;-68
2023/04/23 03:02:45;;;;;;;1.98;0.88;;;;;;;8.03;72.52;99284.75;5095638;28;20044;-69
2023/04/23 03:05:14;;;;;;;1.35;1.05;;;;;;;7.97;72.58;99284.72;5077949;28;20123;-70
2023/04/23 03:07:43;;;;;;;1.40;1.30;;;;;;;7.97;71.96;99273.72;5077647;28;20513;-69
2023/04/23 03:10:12;;;;;;;1.77;1.67;;;;;;;7.80;72.57;99281.28;5077435;28;20044;-71
2023/04/23 03:12:41;;;;;;;4.97;1.30;;;;;;;7.78;72.43;99272.81;5077651;28;20285;-69
2023/04/23 03:15:11;;;;;;;2.80;2.20;;;;;;;7.77;72.53;99271.13;5095422;28;20520;-68
2023/04/23 03:17:40;;;;;;;1.50;1.40;;;;;;;7.86;73.09;99272.84;5077372;28;20264;-69
2023/04/23 03:20:11;;;;;;;1.02;0.93;;;;;;;7.96;72.81;99266.94;5077279;28;20401;-69
2023/04/23 03:22:41;;;;;;;0.88;0.80;;;;;;;7.81;72.10;99283.00;5095362;28;20061;-70
2023/04/23 03:25:10;;;;;;;0.73;0.73;;;;;;;7.75;73.10;99272.78;5077083;28;20071;-69
2023/04/23 03:27:40;;;;;;;3.13;1.73;;;;;;;7.79;73.40;99271.13;5077255;28;20044;-68
2023/04/23 03:30:09;;;;;;;1.13;0.88;;;;;;;7.65;73.30;99276.16;5077125;28;20051;-68
2023/04/23 03:32:38;;;;;;;1.55;1.45;;;;;;;7.65;73.13;99276.16;5095372;28;20063;-68
2023/04/23 03:35:10;;;;;;;1.23;1.13;;;;;;;7.68;73.56;99278.69;5077280;28;20044;-69
2023/04/23 03:37:43;;;;;;;2.55;1.88;;;;;;;7.75;73.08;99277.88;5095606;28;20058;-70
2023/04/23 03:40:13;;;;;;;1.35;1.25;;;;;;;7.68;72.91;99291.38;5095240;28;20078;-70
2023/04/23 03:42:44;;;;;;;1.65;1.38;;;;;;;7.67;73.27;99277.00;5094958;28;20044;-70
2023/04/23 03:45:16;;;;;;;1.45;0.93;;;;;;;7.55;73.32;99276.94;5076803;28;20139;-70
2023/04/23 03:47:45;;;;;;;0.70;0.70;;;;;;;7.60;73.40;99277.81;5076827;28;20082;-69
2023/04/23 03:50:16;;;;;;;4.63;3.20;;;;;;;7.55;73.54;99289.66;5073322;28;20086;-69
2023/04/23 03:52:51;;;;;;;1.27;1.00;;;;;;;7.48;74.17;99282.84;5074754;28;20131;-69
2023/04/23 03:55:40;;;;;;;0.63;0.63;;;;;;;7.36;73.76;99281.09;5074262;28;20051;-69
2023/04/23 03:58:09;;;;;;;1.10;1.03;;;;;;;7.42;74.01;99282.81;5073479;28;20032;-69
2023/04/23 04:00:45;;;;;;;0.35;0.35;;;;;;;7.42;74.04;99285.34;5074642;28;20300;-69
2023/04/23 04:03:14;;;;;;;;;;;;;;;7.46;73.81;99289.63;5074664;28;20524;-70
2023/04/23 04:05:44;;;;;;;0.65;0.65;;;;;;;7.52;73.76;99289.63;5072999;28;19920;-70
2023/04/23 04:08:13;;;;;;;0.40;0.40;;;;;;;7.60;74.03;99285.44;5074207;28;20075;-69
2023/04/23 04:10:42;;;;;;;0.93;0.93;;;;;;;7.78;73.77;99282.13;5072772;28;20403;-70
2023/04/23 04:13:11;;;;;;;0.50;0.50;;;;;;;7.68;73.54;99281.22;5074367;28;20085;-69
2023/04/23 04:15:39;;;;;;;2.70;1.60;;;;;;;7.77;73.86;99282.97;5072838;28;20044;-70
2023/04/23 04:18:08;;;;;;;0.67;0.67;;;;;;;7.77;73.55;99290.59;5074045;28;20071;-70
2023/04/23 04:20:37;;;;;;;3.00;2.28;;;;;;;7.79;73.98;99288.91;5073960;28;20048;-69
2023/04/23 04:23:07;;;;;;;3.42;2.00;;;;;;;8.04;73.28;99291.53;5073964;28;20037;-69
2023/04/23 04:25:38;;;;;;;0.77;0.77;;;;;;;8.15;73.22;99294.13;5074207;28;20490;-70
2023/04/23 04:28:08;;;;;;;1.70;1.58;;;;;;;8.27;72.89;99295.88;5074015;28;20048;-69
2023/04/23 04:30:37;;;;;;;2.60;1.58;;;;;;;8.17;72.37;99301.72;5074002;28;20494;-70
2023/04/23 04:33:05;;;;;;;1.83;1.67;;;;;;;8.30;73.27;99298.41;5074160;28;20072;-71
2023/04/23 04:35:34;;;;;;;0.55;0.55;;;;;;;8.32;72.52;99296.72;5074008;28;20059;-69
2023/04/23 04:38:03;;;;;;;1.05;1.05;;;;;;;8.45;72.53;99304.38;5073734;28;20036;-69
2023/04/23 04:40:33;;;;;;;1.17;1.05;;;;;;;8.56;71.77;99299.31;5073632;28;20040;-70
2023/04/23 04:43:04;;;;;;;1.70;1.30;;;;;;;8.61;71.42;99312.88;5073793;28;20047;-69
2023/04/23 04:45:33;;;;;;;1.45;1.35;;;;;;;8.69;72.24;99309.47;5073655;28;20052;-68
2023/04/23 04:48:01;;;;;;;3.00;1.40;;;;;;;8.73;72.30;99310.34;5073607;28;20041;-69
2023/04/23 04:50:30;;;;;;;2.73;1.00;;;;;;;8.84;71.30;99305.25;5092840;28;20052;-69
2023/04/23 04:52:59;;;;;;;0.70;0.70;;;;;;;8.92;71.01;99303.56;5094187;28;20434;-69
2023/04/23 04:55:28;;;;;;;1.27;1.17;;;;;;;9.01;71.83;99301.84;5094069;28;20070;-71
2023/04/23 04:57:59;;;;;;;0.75;0.75;;;;;;;9.13;71.06;99312.03;5093255;28;20494;-69
2023/04/23 05:00:30;;;;;;;3.28;2.22;;;;;;;9.23;71.22;99303.53;5075738;28;20051;-70
2023/04/23 05:02:59;;;;;;;2.80;1.60;;;;;;;9.39;70.81;99305.19;5094270;28;20052;-71
2023/04/23 05:05:28;;;;;;;1.20;1.10;;;;;;;9.53;70.70;99306.84;5093828;28;20036;-69
2023/04/23 05:08:01;;;;;;;0.80;0.80;;;;;;;9.62;70.21;99306.84;5093598;28;20036;-69
2023/04/23 05:10:30;;;;;;;1.10;0.98;;;;;;;9.75;70.13;99308.47;5093520;28;20051;-69
2023/04/23 05:13:00;;;;;;;0.80;0.73;;;;;;;9.80;69.11;99301.66;5093546;28;20074;-71
2023/04/23 05:15:29;;;;;;;1.30;1.20;;;;;;;9.92;68.96;99299.06;5093573;28;20083;-70
2023/04/23 05:17:58;;;;;;;1.23;1.13;;;;;;;10.11;68.97;99303.22;5075556;28;20100;-69
2023/04/23 05:20:27;;;;;;;0.45;0.45;;;;;;;10.30;68.60;99299.75;5093463;28;20048;-70
2023/04/23 05:22:58;;;;;;;2.67;1.33;;;;;;;10.48;68.30;99304.75;5093416;28;20494;-70
2023/04/23 05:25:27;;;;;;;1.08;1.05;;;;;;;10.42;68.56;99281.81;5075829;28;20432;-70
2023/04/23 05:27:56;;;;;;;0.70;0.68;;;;;;;10.81;67.85;99292.59;5093708;28;20131;-70
2023/04/23 05:30:26;;;;;;;0.52;0.52;;;;;;;10.92;67.37;99301.84;5093627;28;20089;-70
2023/04/23 05:32:55;;;;;;;2.60;1.67;;;;;;;11.12;66.76;99301.69;5093253;28;20036;-70
2023/04/23 05:35:24;;;;;;;0.65;0.65;;;;;;;11.29;66.41;99303.25;5093355;28;20101;-69
2023/04/23 05:37:53;;;;;;;0.60;0.60;;;;;;;11.48;65.60;99298.78;5093306;28;20051;-70
2023/04/23 05:40:22;;;;;;;1.13;0.87;;;;;;;11.68;65.07;99294.34;5093583;28;20040;-70
2023/04/23 05:42:51;;;;;;;0.77;0.77;;;;;;;11.91;64.39;99299.16;5093440;28;20063;-70
2023/04/23 05:45:20;;;;;;;0.85;0.85;;;;;;;12.10;63.85;99298.06;5092487;28;20082;-70
2023/04/23 05:47:52;;;;;;;0.85;0.85;;;;;;;12.23;63.12;99302.19;5093490;28;20135;-69
2023/04/23 05:50:21;;;;;;;0.80;0.80;;;;;;;12.31;62.56;99294.41;5092956;28;20048;-69
2023/04/23 05:52:50;;;;;;;;;;;;;;;12.53;62.07;99303.44;5093575;28;20044;-70
2023/04/23 05:55:19;;;;;;;0.52;0.52;;;;;;;12.69;61.74;99304.91;5093142;28;19924;-70
2023/04/23 05:57:48;;;;;;;3.22;1.58;;;;;;;12.75;61.47;99297.13;5093556;28;20040;-70
2023/04/23 06:00:17;;;;;;;1.20;1.10;;;;;;;12.85;61.20;99296.13;5092602;28;20115;-70
2023/04/23 06:02:46;;;;;;;0.90;0.73;;;;;;;12.98;61.02;99305.28;5093366;28;20045;-69
2023/04/23 06:05:16;;;;;;;8.77;1.17;;;;;;;13.18;60.59;99299.84;5092424;28;20127;-70
2023/04/23 06:07:46;;;;;;;3.25;1.92;;;;;;;13.35;60.16;99305.53;5093076;28;20040;-69
2023/04/23 06:10:15;;;;;;;0.98;0.88;;;;;;;13.48;60.08;99301.03;5096469;28;20044;-69
2023/04/23 06:12:43;;;;;;;1.02;0.70;;;;;;;13.55;59.73;99293.22;5096647;28;20036;-69
2023/04/23 06:15:12;;;;;;;0.80;0.80;;;;;;;13.72;59.26;99295.44;5096628;28;20066;-70
2023/04/23 06:17:41;;;;;;;1.02;0.75;;;;;;;13.77;58.88;99293.63;5096590;28;20563;-69
2023/04/23 06:20:10;;;;;;;1.98;1.88;;;;;;;13.88;59.07;99295.09;5096481;28;20048;-70
2023/04/23 06:22:52;;;;;;;1.17;1.08;;;;;;;13.99;58.51;99300.00;5096603;28;20052;-69
2023/04/23 06:25:21;;;;;;;1.73;1.02;;;;;;;13.98;58.82;99293.19;5096415;28;20134;-69
2023/04/23 06:27:50;;;;;;;0.57;0.57;;;;;;;14.19;58.84;99297.88;5096328;28;20052;-70
2023/04/23 06:30:23;;;;;;;1.75;1.48;;;;;;;14.42;58.87;99300.81;5096417;28;20386;-69
2023/04/23 06:32:53;;;;;;;2.35;1.35;;;;;;;14.41;58.32;99293.16;5096660;28;20440;-69
2023/04/23 06:35:22;;;;;;;1.63;0.63;;;;;;;14.52;58.39;99292.03;5096517;28;20040;-69
2023/04/23 06:37:52;;;;;;;2.60;2.20;;;;;;;14.67;58.07;99291.69;5096217;28;20093;-69
2023/04/23 06:40:21;;;;;;;0.93;0.80;;;;;;;14.80;58.00;99291.38;5096646;28;20485;-69
2023/04/23 06:42:50;;;;;;;2.97;1.33;;;;;;;14.78;57.71;99284.53;5078381;28;20442;-70
2023/04/23 06:45:32;;;;;;;1.25;1.15;;;;;;;14.99;57.54;99283.19;5095949;28;20135;-70
2023/04/23 06:48:01;;;;;;;2.53;2.33;;;;;;;15.11;56.74;99282.03;5095937;28;20043;-70
2023/04/23 06:50:30;;;;;;;3.17;0.93;;;;;;;15.20;56.26;99272.38;5095759;28;20508;-70
2023/04/23 06:53:00;;;;;;;1.17;0.80;;;;;;;15.40;56.13;99275.25;5096027;28;20280;-69
2023/04/23 06:55:29;;;;;;;0.70;0.68;;;;;;;15.58;55.78;99279.09;5095836;28;20055;-69
2023/04/23 06:57:58;;;;;;;1.15;0.95;;;;;;;15.70;55.55;99280.47;5095799;28;20570;-69
2023/04/23 07:00:26;;;;;;;1.65;1.55;;;;;;;15.84;55.36;99276.63;5095753;28;20040;-70
2023/04/23 07:02:56;;;;;;;3.92;1.55;;;;;;;16.06;55.27;99282.84;5077707;28;20040;-69
2023/04/23 07:05:25;;;;;;;1.20;1.00;;;;;;;16.27;54.94;99280.53;5096575;28;20086;-70
2023/04/23 07:07:53;;;;;;;2.75;1.00;;;;;;;16.40;54.85;99287.00;5095685;28;20044;-69
2023/04/23 07:10:24;;;;;;;1.90;1.80;;;;;;;16.49;53.54;99276.41;5095758;28;20436;-70
2023/04/23 07:12:53;;;;;;;1.05;0.93;;;;;;;16.56;53.23;99283.06;5095773;28;20062;-69
2023/04/23 07:15:22;;;;;;;3.37;2.00;;;;;;;16.75;53.36;99279.03;5095658;28;20132;-69
2023/04/23 07:17:52;;;;;;;1.70;1.30;;;;;;;16.87;53.23;99273.47;5095482;28;20471;-70
2023/04/23 07:20:21;;;;;;;3.53;1.55;;;;;;;16.90;53.44;99278.53;5095254;28;20098;-69
2023/04/23 07:22:50;;;;;;;1.35;1.25;;;;;;;17.08;52.62;99274.50;5095877;28;20131;-70
2023/04/23 07:25:20;;;;;;;1.80;1.37;;;;;;;17.21;51.79;99278.34;5095613;28;20441;-69
2023/04/23 07:27:51;;;;;;;0.93;0.82;;;;;;;17.38;51.14;99276.88;5095464;28;20785;-70
2023/04/23 07:30:20;;;;;;;1.70;1.60;;;;;;;17.62;50.59;99271.78;5095168;28;20044;-69
2023/04/23 07:32:49;;;;;;;1.38;1.05;;;;;;;17.81;49.63;99276.22;5094917;28;20123;-69
2023/04/23 07:35:19;;;;;;;0.80;0.80;;;;;;;17.94;49.12;99268.88;5095690;28;20371;-69
2023/04/23 07:37:52;;;;;;;0.50;0.50;;;;;;;17.89;48.44;99268.22;5094976;28;20272;-69
2023/04/23 07:40:22;;;;;;;1.33;0.98;;;;;;;17.96;48.08;99262.75;5095044;28;20055;-69
2023/04/23 07:42:52;;;;;;;;;;;;;;;18.08;47.78;99271.78;5095269;28;20048;-69
2023/04/23 07:45:21;;;;;;;2.85;1.50;;;;;;;18.27;47.26;99259.00;5095275;28;20006;-69
2023/04/23 07:47:50;;;;;;;1.75;1.05;;;;;;;18.49;46.78;99272.81;5094799;28;20097;-69
2023/04/23 07:50:19;;;;;;;4.22;1.10;;;;;;;18.51;46.36;99264.09;5094546;28;20109;-69
2023/04/23 07:52:48;;;;;;;1.35;1.25;;;;;;;18.57;46.22;99270.78;5094701;28;20443;-71
2023/04/23 07:55:19;;;;;;;1.65;0.98;;;;;;;18.66;45.69;99267.81;5094916;28;20551;-69
2023/04/23 07:57:47;;;;;;;1.23;0.95;;;;;;;18.76;45.42;99263.97;5094619;28;20048;-70
2023/04/23 08:00:18;;;;;;;1.27;1.17;;;;;;;18.89;45.50;99265.13;5094468;28;20047;-69
2023/04/23 08:02:47;;;;;;;2.00;1.38;;;;;;;18.86;45.00;99251.50;5095138;28;20489;-71
2023/04/23 08:05:17;;;;;;;1.30;1.00;;;;;;;18.87;45.10;99260.94;5094445;28;20132;-69
2023/04/23 08:07:46;;;;;;;1.23;0.85;;;;;;;18.98;45.50;99258.75;5094814;28;20036;-69
2023/04/23 08:10:14;;;;;;;0.90;0.70;;;;;;;19.06;45.41;99254.94;5094789;28;20046;-69
2023/04/23 08:12:44;;;;;;;2.07;1.77;;;;;;;19.35;46.11;99258.88;5094513;28;20455;-70
2023/04/23 08:15:13;;;;;;;;;;;;;;;19.44;45.59;99257.66;5094732;28;20326;-69
2023/04/23 08:17:45;;;;;;;1.27;1.10;;;;;;;19.42;45.37;99260.31;5094794;28;19920;-70
2023/04/23 08:20:14;;;;;;;1.48;1.38;;;;;;;19.50;45.81;99255.66;5094577;28;20071;-69
2023/04/23 08:22:43;;;;;;;2.53;0.98;;;;;;;19.55;46.00;99255.47;5088662;28;20127;-70
2023/04/23 08:25:12;;;;;;;1.17;0.93;;;;;;;19.60;45.73;99254.38;5084875;28;20073;-69
2023/04/23 08:27:41;;;;;;;1.30;0.85;;;;;;;19.62;45.44;99247.34;5083790;28;20394;-70
2023/04/23 08:30:10;;;;;;;1.02;0.93;;;;;;;19.78;45.53;99248.34;5064490;28;20029;-70
2023/04/23 08:32:40;;;;;;;1.30;1.00;;;;;;;19.96;45.36;99254.47;5082942;28;20032;-71
2023/04/23 08:35:11;;;;;;;0.90;0.88;;;;;;;19.95;44.20;99251.03;5084270;28;20052;-70
2023/04/23 08:37:40;;;;;;;0.70;0.70;;;;;;;20.09;43.70;99247.78;5083435;28;20079;-71
2023/04/23 08:40:10;;;;;;;0.75;0.75;;;;;;;20.16;43.22;99256.09;5091162;28;20040;-69
2023/04/23 08:42:43;;;;;;;5.15;0.80;;;;;;;20.31;42.89;99245.06;5093926;28;20044;-68
2023/04/23 08:45:13;;;;;;;0.85;0.85;;;;;;;20.40;42.33;99244.63;5093813;28;20127;-69
2023/04/23 08:47:43;;;;;;;0.60;0.60;;;;;;;20.47;41.88;99240.81;5094026;28;20421;-70
2023/04/23 08:50:18;;;;;;;2.90;1.50;;;;;;;20.46;40.99;99234.81;5093682;28;20077;-71
2023/04/23 08:52:50;;;;;;;2.28;1.25;;;;;;;20.50;41.14;99238.94;5094031;28;20044;-70
2023/04/23 08:55:20;;;;;;;1.10;1.00;;;;;;;20.51;40.49;99235.44;5093947;28;20371;-71
2023/04/23 08:57:50;;;;;;;1.27;0.90;;;;;;;20.57;40.58;99229.09;5093680;28;20509;-70
2023/04/23 09:00:21;;;;;;;1.80;0.95;;;;;;;20.71;40.41;99226.66;5093665;28;20052;-70
2023/04/23 09:02:51;;;;;;;0.68;0.68;;;;;;;20.76;39.20;99227.28;5093711;28;20128;-70
2023/04/23 09:05:21;;;;;;;2.10;1.52;;;;;;;20.96;38.96;99221.13;5093526;28;20128;-68
2023/04/23 09:07:50;;;;;;;1.05;0.95;;;;;;;21.05;38.35;99229.31;5093618;28;20048;-70
2023/04/23 09:10:19;;;;;;;1.17;0.87;;;;;;;21.08;38.84;99220.53;5093490;28;20040;-69
2023/04/23 09:12:48;;;;;;;1.33;1.15;;;;;;;21.20;38.77;99223.34;5093523;28;20036;-69
2023/04/23 09:15:17;;;;;;;0.50;0.50;;;;;;;21.22;38.34;99231.03;5075497;28;20126;-69
2023/04/23 09:17:48;;;;;;;0.75;0.75;;;;;;;21.21;38.18;99227.59;5094063;28;20767;-69
2023/04/23 09:20:17;;;;;;;1.40;1.27;;;;;;;21.28;38.09;99218.59;5093383;28;20044;-67
2023/04/23 09:22:49;;;;;;;0.87;0.87;;;;;;;21.42;38.65;99214.44;5093443;28;20044;-68
2023/04/23 09:25:20;;;;;;;3.13;1.85;;;;;;;21.48;38.34;99219.31;5093503;28;20121;-69
2023/04/23 09:27:51;;;;;;;1.10;0.73;;;;;;;21.48;37.30;99221.91;5093259;28;20048;-69
2023/04/23 09:30:20;;;;;;;3.00;1.67;;;;;;;21.44;37.02;99213.44;5093377;28;20048;-69
2023/04/23 09:32:49;;;;;;;1.20;1.10;;;;;;;21.35;36.76;99209.56;5093437;28;20056;-69
2023/04/23 09:35:19;;;;;;;1.20;1.05;;;;;;;21.48;37.19;99216.72;5093542;28;20478;-69
2023/04/23 09:37:52;;;;;;;0.40;0.40;;;;;;;21.55;36.36;99211.13;5093231;28;20102;-69
2023/04/23 09:40:23;;;;;;;0.60;0.60;;;;;;;21.59;35.97;99209.22;5093321;28;20436;-69
2023/04/23 09:42:53;;;;;;;1.35;1.02;;;;;;;21.66;36.29;99203.59;5095051;28;20044;-69
2023/04/23 09:45:23;;;;;;;1.42;1.30;;;;;;;21.79;35.52;99211.56;5097215;28;20408;-71
2023/04/23 09:47:55;;;;;;;0.63;0.63;;;;;;;21.74;35.20;99208.41;5097762;28;20067;-69
2023/04/23 09:50:33;;;;;;;0.85;0.82;;;;;;;21.83;34.96;99205.31;5096905;28;20075;-70
2023/04/23 09:53:05;;;;;;;1.83;1.27;;;;;;;21.88;35.58;99203.31;5097123;28;20067;-70
2023/04/23 09:55:37;;;;;;;0.77;0.77;;;;;;;21.91;35.09;99203.13;5096933;28;20059;-68
2023/04/23 09:58:11;;;;;;;0.65;0.65;;;;;;;21.88;34.52;99198.94;5096948;28;20043;-67
2023/04/23 10:00:40;;;;;;;0.75;0.70;;;;;;;22.04;34.52;99193.75;5097294;28;20047;-67
2023/04/23 10:03:10;;;;;;;;;;;;;;;22.00;34.32;99187.06;5097240;28;20443;-67
2023/04/23 10:05:41;;;;;;;1.00;0.90;;;;;;;22.13;35.38;99197.59;5096840;28;19927;-67
2023/04/23 10:08:16;;;;;;;4.43;0.63;;;;;;;22.04;34.56;99193.75;5096799;28;20054;-67
2023/04/23 10:10:45;;;;;;;0.70;0.70;;;;;;;22.01;34.39;99191.31;5097712;28;20075;-69
2023/04/23 10:13:35;;;;;;;1.15;0.68;;;;;;;22.09;34.23;99183.94;5096818;28;20387;-68
2023/04/23 10:16:05;;;;;;;0.40;0.40;;;;;;;22.07;34.18;99179.75;5096446;28;20040;-68
2023/04/23 10:18:54;;;;;;;1.23;0.95;;;;;;;22.06;34.20;99186.72;5096569;28;20055;-67
2023/04/23 10:21:28;;;;;;;1.20;1.05;;;;;;;22.20;34.56;99170.34;5096814;28;20044;-67
2023/04/23 10:24:13;;;;;;;1.10;1.00;;;;;;;22.25;34.00;99166.56;5096407;28;20040;-67
2023/04/23 10:26:43;;;;;;;0.60;0.60;;;;;;;22.29;34.29;99160.25;5096730;28;20044;-66
2023/04/23 10:29:15;;;;;;;0.73;0.73;;;;;;;22.37;33.95;99162.44;5096541;28;20432;-67
2023/04/23 10:31:46;;;;;;;1.13;0.95;;;;;;;22.12;34.13;99164.75;5096340;28;20056;-68
2023/04/23 10:34:15;;;;;;;1.40;1.23;;;;;;;22.19;34.43;99161.72;5096130;28;20050;-66
2023/04/23 10:36:44;;;;;;;1.00;0.93;;;;;;;22.35;34.44;99161.69;5096528;28;20047;-67
2023/04/23 10:39:16;;;;;;;0.65;0.65;;;;;;;22.26;33.92;99157.84;5096094;28;20046;-66
2023/04/23 10:41:58;;;;;;;2.60;0.82;;;;;;;22.28;34.54;99130.00;5096430;28;20440;-65
2023/04/23 10:44:33;;;;;;;2.83;0.98;;;;;;;22.70;35.19;99146.69;5096110;28;20039;-66
2023/04/23 10:47:22;;;;;;;0.98;0.93;;;;;;;22.80;36.28;99143.44;5095982;28;20482;-69
2023/04/23 10:49:51;;;;;;;0.50;0.50;;;;;;;22.83;35.74;99155.44;5095985;28;20044;-66
2023/04/23 10:52:20;;;;;;;1.02;0.82;;;;;;;22.94;35.91;99148.66;5091509;28;20038;-65
2023/04/23 10:54:59;;;;;;;0.82;0.80;;;;;;;23.20;35.77;99152.31;5084466;28;20036;-65
2023/04/23 10:57:29;;;;;;;1.65;1.13;;;;;;;23.10;35.56;99146.00;5084727;28;20558;-69
2023/04/23 11:00:03;;;;;;;0.52;0.52;;;;;;;23.11;35.28;99138.06;5085210;28;20058;-66
2023/04/23 11:02:44;;;;;;;0.80;0.80;;;;;;;22.90;34.86;99138.53;5075467;28;20110;-66
2023/04/23 11:05:14;;;;;;;1.08;0.98;;;;;;;22.92;35.83;99141.88;5074078;28;20048;-67
2023/04/23 11:07:42;;;;;;;;;;;;;;;22.86;35.59;99137.03;5075746;28;20044;-66
2023/04/23 11:10:14;;;;;;;1.30;1.20;;;;;;;22.84;35.15;99139.75;5075254;28;20259;-66
2023/04/23 11:12:44;;;;;;;0.85;0.85;;;;;;;22.87;34.62;99128.28;5075583;28;20403;-65
2023/04/23 11:15:15;;;;;;;1.13;1.02;;;;;;;23.12;35.38;99133.72;5075223;28;20094;-65
2023/04/23 11:17:59;;;;;;;0.40;0.40;;;;;;;23.09;35.73;99128.69;5074248;28;20078;-67
2023/04/23 11:20:28;;;;;;;1.10;1.00;;;;;;;23.04;36.08;99126.34;5074120;28;20051;-66
2023/04/23 11:22:57;;;;;;;0.60;0.60;;;;;;;23.10;36.06;99130.38;5075350;28;20465;-64
2023/04/23 11:25:29;;;;;;;0.60;0.57;;;;;;;23.22;35.90;99127.03;5071597;28;20980;-67
2023/04/23 11:27:58;;;;;;;1.52;0.88;;;;;;;23.24;35.27;99126.00;5072600;28;20037;-65
2023/04/23 11:30:29;;;;;;;0.98;0.90;;;;;;;22.98;34.92;99123.28;5075823;28;20032;-64
2023/04/23 11:33:00;;;;;;;0.60;0.60;;;;;;;23.17;35.10;99113.44;5075278;28;20478;-67
2023/04/23 11:35:38;;;;;;;1.15;0.90;;;;;;;23.19;35.33;99120.22;5075013;28;20467;-68
2023/04/23 11:38:09;;;;;;;0.63;0.63;;;;;;;23.20;35.80;99110.66;5074817;28;20044;-66
2023/04/23 11:40:41;;;;;;;2.47;1.38;;;;;;;23.34;35.24;99114.09;5074668;28;20056;-67
2023/04/23 11:43:10;;;;;;;1.15;1.05;;;;;;;23.38;34.60;99114.75;5074985;28;20086;-67
2023/04/23 11:45:39;;;;;;;0.93;0.70;;;;;;;23.57;34.56;99109.22;5074973;28;20144;-68
2023/04/23 11:48:09;;;;;;;0.60;0.60;;;;;;;23.44;34.02;99106.56;5074790;28;20063;-66
2023/04/23 11:50:38;;;;;;;0.52;0.47;;;;;;;23.42;33.99;99100.59;5054523;28;20072;-66
2023/04/23 11:53:09;;;;;;;0.88;0.70;;;;;;;23.53;34.11;99112.97;5054533;28;20045;-66